Flight Track Log - Related Links

Times and Time Zones

All times are in EDT time to prevent confusion due to time zone crossing. See the AAL2345 flight status page for this flight to view local times or setup timezone preferences in your user account.

Time Position Orientation Groundspeed Altitude Reporting Facility
EDT Latitude Longitude Course Direction KTS MPH feet Rate Location/Type
Tue 06:44:21 PM 41.9000 -87.9000 189° South 205 236 3,100  Level Chicago TRACON
Tue 06:45:00 PM 41.7538 -87.9523 188° South  Level FlightAware Approximate
Tue 06:45:51 PM 41.8006 -87.9106 185° South 241 277 5,900  Level Chicago Center
Tue 06:46:00 PM 41.6431 -87.9725 188° South  Level FlightAware Approximate
Tue 06:46:53 PM 41.7253 -87.9369 195° South 275 316 8,700  Level Chicago Center
Tue 06:47:00 PM 41.5325 -87.9935 189° South  Level FlightAware Approximate
Tue 06:47:56 PM 41.6456 -87.9581 191° South 289 333 11,400  Level Chicago Center
Tue 06:48:00 PM 41.4220 -88.0156 189° South  Level FlightAware Approximate
Tue 06:48:58 PM 41.5600 -87.9842 193° South 310 357 12,300  Level Chicago Center
Tue 06:49:00 PM 41.3156 -88.0536 189° South  Level FlightAware Approximate
Tue 06:50:00 PM 41.4594 -88.0142 193° South 361 415 14,500  Level Chicago Center
Tue 06:51:02 PM 41.3494 -88.0514 194° South 378 435 16,800 1,935 Climbing Chicago Center
Tue 06:52:04 PM 41.2661 -88.1478 221° Southwest 396 456 18,500 1,887 Climbing Chicago Center
Tue 06:53:06 PM 41.1697 -88.2744 225° Southwest 404 465 20,700 1,839 Climbing Chicago Center
Tue 06:54:08 PM 41.0753 -88.3586 214° Southwest 418 481 22,300 1,548 Climbing Chicago Center
Tue 06:55:10 PM 40.9703 -88.4300 207° Southwest 428 493 23,900 1,500 Climbing Chicago Center
Tue 06:56:12 PM 40.8636 -88.4989 206° Southwest 427 491 25,400 1,306 Climbing Chicago Center
Tue 06:57:14 PM 40.7556 -88.5703 207° Southwest 434 499 26,600 1,200 Climbing Chicago Center
Tue 06:58:17 PM 40.6228 -88.6569 206° Southwest 443 510 27,900 1,344 Climbing Chicago Center
Tue 06:59:19 PM 40.5100 -88.7292 206° Southwest 451 519 29,400 1,355 Climbing Chicago Center
Tue 07:00:21 PM 40.3967 -88.8025 206° Southwest 446 513 30,700 1,210 Climbing Chicago Center
Tue 07:01:23 PM 40.2858 -88.8733 206° Southwest 441 507 31,900 823 Climbing Chicago Center
Tue 07:02:25 PM 40.1744 -88.9456 206° Southwest 443 510 32,400 677 Climbing Chicago Center
Tue 07:03:27 PM 40.0633 -89.0147 205° Southwest 440 506 33,300 774 Climbing Chicago Center
Tue 07:04:29 PM 39.9542 -89.0844 206° Southwest 435 501 34,000 400 Climbing Chicago Center
Tue 07:05:12 PM 39.8656 -89.1400 206° Southwest 435 501 34,000  Level Kansas City Center
Tue 07:06:13 PM 39.7572 -89.2089 206° Southwest 433 498 34,000  Level Kansas City Center
Tue 07:07:16 PM 39.6464 -89.2783 206° Southwest 435 501 34,000  Level Kansas City Center
Tue 07:08:17 PM 39.5392 -89.3472 206° Southwest 433 498 34,000  Level Kansas City Center
Tue 07:09:18 PM 39.4308 -89.4147 206° Southwest 432 497 34,000  Level Kansas City Center
Tue 07:10:20 PM 39.3203 -89.4836 206° Southwest 435 501 34,000  Level Kansas City Center
Tue 07:11:23 PM 39.1872 -89.5667 206° Southwest 440 506 34,000  Level Kansas City Center
Tue 07:12:24 PM 39.0794 -89.6339 206° Southwest 438 504 34,000  Level Kansas City Center
Tue 07:13:25 PM 38.9614 -89.7061 205° Southwest 437 503 34,000  Level Kansas City Center
Tue 07:14:28 PM 38.8567 -89.7692 205° Southwest 440 506 34,000  Level Kansas City Center
Tue 07:15:30 PM 38.7467 -89.8364 205° Southwest 438 504 34,000  Level Kansas City Center
Tue 07:16:31 PM 38.6353 -89.9028 205° Southwest 437 503 34,000  Level Kansas City Center
Tue 07:17:31 PM 38.5264 -89.9697 206° Southwest 433 498 34,000  Level Kansas City Center
Tue 07:18:35 PM 38.4175 -90.0353 205° Southwest 430 495 34,000  Level Kansas City Center
Tue 07:19:36 PM 38.3081 -90.1014 205° Southwest 432 497 34,000  Level Kansas City Center
Tue 07:20:37 PM 38.1769 -90.1817 206° Southwest 433 498 34,000  Level Kansas City Center
Tue 07:21:40 PM 38.0681 -90.2469 205° Southwest 432 497 34,000  Level Kansas City Center
Tue 07:22:42 PM 37.9586 -90.3119 205° Southwest 433 498 34,000  Level Kansas City Center
Tue 07:23:42 PM 37.8489 -90.3797 206° Southwest 437 503 34,000  Level Kansas City Center
Tue 07:24:44 PM 37.7375 -90.4442 205° Southwest 439 505 34,000  Level Kansas City Center
Tue 07:25:47 PM 37.6275 -90.5100 205° Southwest 438 504 34,000  Level Kansas City Center
Tue 07:26:48 PM 37.5175 -90.5769 206° Southwest 439 505 34,000  Level Kansas City Center
Tue 07:27:49 PM 37.4072 -90.6400 204° Southwest 437 503 34,000  Level Kansas City Center
Tue 07:28:53 PM 37.2856 -90.7114 205° Southwest 435 501 34,000  Level Kansas City Center
Tue 07:29:53 PM 37.1700 -90.7797 205° Southwest 433 498 34,000  Level Kansas City Center
Tue 07:30:55 PM 37.0478 -90.8503 205° Southwest 427 491 34,000  Level Kansas City Center
Tue 07:31:58 PM 36.9469 -90.9317 213° Southwest 436 502 34,000  Level Kansas City Center
Tue 07:32:58 PM 36.8903 -91.0642 242° Southwest 438 504 34,000  Level Kansas City Center
Tue 07:34:02 PM 36.8258 -91.2072 241° Southwest 436 502 34,000  Level Kansas City Center
Tue 07:35:02 PM 36.7664 -91.3389 241° Southwest 435 501 34,000  Level Kansas City Center
Tue 07:36:03 PM 36.7031 -91.4717 239° Southwest 439 505 34,000  Level Kansas City Center
Tue 07:37:07 PM 36.6450 -91.6067 242° Southwest 441 507 34,000  Level Kansas City Center
Tue 07:37:38 PM 36.6061 -91.6881 239° Southwest 441 507 34,000  Level Memphis Center
Tue 07:38:38 PM 36.5461 -91.8214 241° Southwest 441 507 34,000  Level Memphis Center
Tue 07:39:38 PM 36.4861 -91.9519 240° Southwest 441 507 34,000  Level Memphis Center
Tue 07:40:38 PM 36.4347 -92.0669 241° Southwest 436 502 34,000  Level Memphis Center
Tue 07:41:38 PM 36.3767 -92.1947 241° Southwest 436 502 34,000  Level Memphis Center
Tue 07:42:38 PM 36.3183 -92.3247 241° Southwest 436 502 34,000  Level Memphis Center
Tue 07:43:38 PM 36.2578 -92.4494 239° Southwest 436 502 34,000  Level Memphis Center
Tue 07:44:38 PM 36.1994 -92.5792 241° Southwest 436 502 34,000  Level Memphis Center
Tue 07:45:38 PM 36.1386 -92.7061 239° Southwest 436 502 34,000  Level Memphis Center
Tue 07:46:38 PM 36.0614 -92.8219 231° Southwest 436 502 34,000  Level Memphis Center
Tue 07:47:38 PM 35.9778 -92.9322 227° Southwest 441 507 34,000  Level Memphis Center
Tue 07:48:39 PM 35.8942 -93.0397 226° Southwest 441 507 34,000  Level Memphis Center
Tue 07:49:38 PM 35.8106 -93.1497 227° Southwest 441 507 34,000  Level Memphis Center
Tue 07:50:38 PM 35.7247 -93.2569 225° Southwest 441 507 34,000  Level Memphis Center
Tue 07:51:38 PM 35.6406 -93.3739 228° Southwest 446 513 34,000  Level Memphis Center
Tue 07:52:38 PM 35.5506 -93.4753 223° Southwest 446 513 34,000  Level Memphis Center
Tue 07:53:38 PM 35.4664 -93.5842 227° Southwest 446 513 34,000  Level Memphis Center
Tue 07:54:38 PM 35.3842 -93.6958 228° Southwest 451 519 34,000  Level Memphis Center
Tue 07:55:38 PM 35.2950 -93.8244 230° Southwest 456 525 34,000  Level Memphis Center
Tue 07:56:38 PM 35.2147 -93.9381 229° Southwest 451 519 34,000  Level Memphis Center
Tue 07:57:38 PM 35.1342 -94.0514 229° Southwest 451 519 34,000  Level Memphis Center
Tue 07:59:26 PM 34.9931 -94.2531 230° Southwest 446 513 34,000  Level Fort Worth Center
Tue 08:00:26 PM 34.9244 -94.3469 228° Southwest 433 498 34,000  Level Fort Worth Center
Tue 08:01:26 PM 34.8481 -94.4583 230° Southwest 433 498 34,000  Level Fort Worth Center
Tue 08:02:26 PM 34.7692 -94.5672 229° Southwest 433 498 34,000  Level Fort Worth Center
Tue 08:03:26 PM 34.6922 -94.6758 229° Southwest 428 493 34,000  Level Fort Worth Center
Tue 08:04:26 PM 34.6133 -94.7844 229° Southwest 428 493 34,000  Level Fort Worth Center
Tue 08:05:27 PM 34.5361 -94.8875 228° Southwest 421 484 34,000  Level Fort Worth Center
Tue 08:06:26 PM 34.4589 -94.9931 228° Southwest 421 484 34,000  Level Fort Worth Center
Tue 08:07:26 PM 34.3533 -95.0364 199° South 407 468 34,000  Level Fort Worth Center
Tue 08:08:26 PM 34.2367 -95.0547 187° South 397 457 34,000  Level Fort Worth Center
Tue 08:09:26 PM 34.1222 -95.0703 186° South 410 472 34,000  Level Fort Worth Center
Tue 08:10:26 PM 34.0036 -95.0858 186° South 427 491 34,000  Level Fort Worth Center
Tue 08:11:26 PM 33.8850 -95.1067 188° South 427 491 34,000  Level Fort Worth Center
Tue 08:12:26 PM 33.7817 -95.1619 204° Southwest 432 497 34,000  Level Fort Worth Center
Tue 08:13:26 PM 33.7861 -95.2967 272° West 332 382 34,000  Level Fort Worth Center
Tue 08:14:26 PM 33.8875 -95.3692 329° Northwest 296 341 34,000  Level Fort Worth Center
Tue 08:15:26 PM 34.0081 -95.3289 15° North 304 350 34,000  Level Fort Worth Center
Tue 08:16:27 PM 34.0706 -95.2069 58° Northeast 326 375 34,000  Level Fort Worth Center
Tue 08:17:27 PM 34.1158 -95.0656 69° East 376 433 34,000  Level Fort Worth Center
Tue 08:18:27 PM 34.1614 -94.9261 68° East 403 464 34,000 -1,000 Level Fort Worth Center
Tue 08:19:27 PM 34.1458 -94.7861 98° East 417 480 32,000 -2,067 Descending Fort Worth Center
Tue 08:20:26 PM 34.0244 -94.7597 170° South 331 381 29,900 -2,017 Descending Fort Worth Center
Tue 08:21:26 PM 33.9456 -94.8897 234° Southwest 298 343 28,000 -1,550 Descending Fort Worth Center
Tue 08:22:26 PM 33.8942 -95.0389 247° West 365 420 26,800 -1,388 Descending Fort Worth Center
Tue 08:23:27 PM 33.8428 -95.1828 247° West 428 493 25,200 -1,388 Descending Fort Worth Center
Tue 08:24:27 PM 33.7950 -95.3214 248° West 450 518 24,000 -1,311 Descending Fort Worth Center
Tue 08:25:26 PM 33.7431 -95.4625 246° West 461 531 22,600 -1,311 Descending Fort Worth Center
Tue 08:26:26 PM 33.6967 -95.5858 246° West 445 512 21,400 -1,587 Descending Fort Worth Center
Tue 08:27:27 PM 33.6528 -95.7117 247° West 424 488 19,400 -1,835 Descending Fort Worth Center
Tue 08:28:27 PM 33.6103 -95.8297 247° West 405 466 17,700 -1,800 Descending Fort Worth Center
Tue 08:29:27 PM 33.5619 -95.9603 246° West 392 451 15,800 -1,765 Descending Fort Worth Center
Tue 08:30:26 PM 33.5233 -96.0631 246° West 380 437 14,200 -1,563 Descending Fort Worth Center
Tue 08:31:26 PM 33.4786 -96.1831 246° West 380 437 12,700 -1,140 Descending Fort Worth Center
Tue 08:32:27 PM 33.4481 -96.2733 248° West 353 406 11,900 -843 Descending Fort Worth Center
Tue 08:33:27 PM 33.4094 -96.3758 246° West 322 371 11,000 -800 Descending Fort Worth Center
Tue 08:34:27 PM 33.3536 -96.4536 229° Southwest 317 365 10,300 -1,000 Descending Fort Worth Center
Tue 08:35:27 PM 33.3000 -96.5261 229° Southwest 304 350 9,000 -1,400 Descending Fort Worth Center
Tue 08:36:27 PM 33.2567 -96.6111 239° Southwest 304 350 7,500 -1,550 Descending Fort Worth Center
Tue 08:37:27 PM 33.2153 -96.6883 237° Southwest 293 337 5,900 -1,261 Descending Fort Worth Center
Tue 08:38:26 PM 33.1719 -96.7681 237° Southwest 288 331 5,000 -800 Descending Fort Worth Center
Tue 08:39:27 PM 33.1306 -96.8453 237° Southwest 288 331 4,300 -992 Descending Fort Worth Center
Tue 08:40:27 PM 33.0872 -96.9275 238° Southwest 283 326 3,000 -1,300 Descending Fort Worth Center

Login

Don't have an account? Register now (free) for customized features, flight alerts, and more!